Time;durP1;ratioP1;P1;durP2;ratioP2;P2;SDS_P1;SDS_P2;PMS_P1;PMS_P2;Temp;Humidity;BMP_temperature;BMP_pressure;BME280_temperature;BME280_humidity;BME280_pressure;Samples;Min_cycle;Max_cycle;Signal;HPM_P1;HPM_P2
2022/06/06 00:00:01;;;;;;;8.28;7.22;;;;;;;14.87;91.27;94815.77;1817517;79;21253;-55
2022/06/06 00:02:31;;;;;;;9.73;7.12;;;;;;;14.73;91.38;94815.09;1830900;78;21037;-56
2022/06/06 00:05:01;;;;;;;8.55;7.47;;;;;;;14.62;91.93;94806.53;1816000;79;20979;-55
2022/06/06 00:07:29;;;;;;;7.20;6.55;;;;;;;14.56;92.02;94811.20;1832055;78;20993;-56
2022/06/06 00:09:58;;;;;;;7.55;6.85;;;;;;;14.53;92.17;94809.98;1815850;79;21037;-55
2022/06/06 00:12:27;;;;;;;8.58;7.00;;;;;;;14.49;92.30;94814.30;1819972;78;21889;-54
2022/06/06 00:14:56;;;;;;;8.53;7.75;;;;;;;14.47;92.58;94802.18;1815250;79;20975;-55
2022/06/06 00:17:23;;;;;;;11.48;7.33;;;;;;;14.47;92.95;94801.55;1815681;79;20947;-55
2022/06/06 00:19:54;;;;;;;7.75;6.95;;;;;;;14.41;92.81;94801.91;1790746;80;20937;-55
2022/06/06 00:22:23;;;;;;;7.80;7.08;;;;;;;14.34;92.88;94805.03;1803410;79;20951;-55
2022/06/06 00:24:52;;;;;;;9.05;6.97;;;;;;;14.25;92.89;94803.68;1791244;80;21256;-56
2022/06/06 00:27:21;;;;;;;8.35;7.60;;;;;;;14.21;93.30;94803.09;1803250;79;20991;-55
2022/06/06 00:29:51;;;;;;;7.92;7.12;;;;;;;14.22;93.56;94801.86;1791284;80;21020;-55
2022/06/06 00:35:08;;;;;;;8.68;6.53;;;;;;;14.23;93.87;94797.85;1791380;80;21461;-55
2022/06/06 00:37:38;;;;;;;7.75;6.95;;;;;;;14.24;94.48;94794.63;1771073;78;21223;-55
2022/06/06 00:40:08;;;;;;;8.10;7.03;;;;;;;14.27;94.73;94797.84;1805122;79;20919;-55
2022/06/06 00:42:39;;;;;;;8.70;7.78;;;;;;;14.29;94.74;94801.50;1765986;80;21298;-56
2022/06/06 00:45:24;;;;;;;8.90;7.10;;;;;;;14.29;94.93;94798.73;1803282;79;20942;-55
2022/06/06 00:48:15;;;;;;;8.05;7.35;;;;;;;14.31;95.02;94799.81;1791343;80;21409;-55
2022/06/06 00:51:03;;;;;;;10.03;8.50;;;;;;;14.37;95.26;94797.92;1803152;79;21242;-55
2022/06/06 00:53:46;;;;;;;12.68;10.58;;;;;;;14.37;94.88;94799.94;1791306;80;20914;-54
2022/06/06 00:56:27;;;;;;;10.88;9.33;;;;;;;14.33;95.10;94797.97;1802993;79;20940;-54
2022/06/06 00:58:59;;;;;;;11.53;9.08;;;;;;;14.32;95.44;94799.95;1777949;80;20977;-55
2022/06/06 01:01:27;;;;;;;11.60;10.23;;;;;;;14.31;95.22;94799.02;1804996;79;20930;-56
2022/06/06 01:04:01;;;;;;;13.28;11.75;;;;;;;14.29;95.82;94790.43;1791222;80;21397;-56
2022/06/06 01:06:30;;;;;;;11.78;10.63;;;;;;;14.31;95.88;94792.11;1805208;79;21026;-55
2022/06/06 01:08:59;;;;;;;10.43;9.40;;;;;;;14.24;95.70;94782.78;1791419;80;20969;-55
2022/06/06 01:11:27;;;;;;;11.85;10.03;;;;;;;14.15;95.86;94777.28;1790135;78;21008;-55
2022/06/06 01:13:56;;;;;;;11.15;10.03;;;;;;;14.10;96.37;94770.98;1761162;80;20950;-55
2022/06/06 01:16:36;;;;;;;9.65;8.75;;;;;;;14.13;96.92;94775.57;1801985;79;21768;-56
2022/06/06 01:19:30;;;;;;;10.32;7.60;;;;;;;14.15;97.12;94774.51;1801547;79;20930;-55
2022/06/06 01:22:52;;;;;;;9.08;8.18;;;;;;;14.16;96.53;94782.36;1818404;78;21448;-54
2022/06/06 01:25:49;;;;;;;9.13;8.03;;;;;;;14.16;95.92;94779.59;1787593;80;20986;-55
2022/06/06 01:28:45;;;;;;;9.45;8.60;;;;;;;14.15;95.83;94786.96;1817770;79;21290;-55
2022/06/06 01:31:21;;;;;;;9.38;8.48;;;;;;;14.16;95.78;94785.13;1787712;80;21142;-55
2022/06/06 01:33:53;;;;;;;8.80;7.58;;;;;;;14.17;95.93;94793.57;1818040;79;21021;-55
2022/06/06 01:36:24;;;;;;;9.50;7.90;;;;;;;14.24;95.76;94799.38;1787700;80;21033;-55
2022/06/06 01:38:52;;;;;;;13.85;8.88;;;;;;;14.28;94.81;94797.20;1818514;79;20994;-54
2022/06/06 01:41:34;;;;;;;9.93;8.93;;;;;;;14.25;94.28;94791.23;1818280;79;20997;-55
2022/06/06 01:44:25;;;;;;;10.23;9.30;;;;;;;14.19;93.68;94799.39;1787868;80;21140;-55
2022/06/06 01:46:53;;;;;;;9.10;8.20;;;;;;;14.19;93.68;94799.39;1818078;79;20922;-54
2022/06/06 01:49:23;;;;;;;9.33;7.85;;;;;;;14.16;93.53;94799.59;1761412;80;20978;-55
2022/06/06 01:52:07;;;;;;;10.65;8.38;;;;;;;14.14;93.37;94806.18;1818082;79;21516;-55
2022/06/06 01:54:35;;;;;;;15.53;8.15;;;;;;;14.12;93.42;94811.39;1787975;80;20926;-55
2022/06/06 01:57:05;;;;;;;10.55;8.65;;;;;;;14.07;93.56;94809.27;1818152;78;20930;-55
2022/06/06 01:59:34;;;;;;;9.35;8.30;;;;;;;14.02;93.74;94810.66;1787748;80;20990;-55
2022/06/06 02:02:02;;;;;;;10.90;8.25;;;;;;;14.04;94.00;94817.91;1818087;79;21437;-55
2022/06/06 02:04:31;;;;;;;11.63;8.98;;;;;;;14.06;94.08;94813.27;1787835;80;20990;-56
2022/06/06 02:06:59;;;;;;;11.53;9.73;;;;;;;14.11;94.03;94815.39;1818166;78;21037;-55
2022/06/06 02:09:31;;;;;;;12.78;9.95;;;;;;;14.09;93.95;94811.73;1787497;80;21891;-54
2022/06/06 02:12:01;;;;;;;10.90;9.28;;;;;;;14.07;93.94;94814.80;1817446;79;21010;-55
2022/06/06 02:14:30;;;;;;;13.13;9.35;;;;;;;14.08;94.13;94816.33;1815809;79;21044;-55
2022/06/06 02:16:58;;;;;;;12.37;9.05;;;;;;;14.07;94.03;94823.10;1815725;79;21021;-56
2022/06/06 02:19:26;;;;;;;13.25;9.23;;;;;;;14.02;93.87;94823.74;1815905;79;20951;-55
2022/06/06 02:21:54;;;;;;;10.65;8.13;;;;;;;13.99;94.05;94832.98;1815759;78;21233;-55
2022/06/06 02:24:22;;;;;;;9.73;8.73;;;;;;;13.95;94.29;94822.08;1815684;79;20942;-55
2022/06/06 02:26:52;;;;;;;11.48;7.92;;;;;;;13.90;94.49;94813.03;1831912;78;21029;-56
2022/06/06 02:29:19;;;;;;;11.48;8.60;;;;;;;13.92;94.64;94816.70;1817323;79;21005;-56
2022/06/06 02:31:48;;;;;;;14.45;9.65;;;;;;;13.90;94.86;94819.17;1831923;78;21013;-56
2022/06/06 02:34:17;;;;;;;10.13;9.13;;;;;;;13.87;94.85;94822.88;1815761;79;21224;-56
2022/06/06 02:36:45;;;;;;;9.73;8.43;;;;;;;13.82;94.84;94820.74;1806047;78;20945;-55
2022/06/06 02:39:14;;;;;;;12.03;7.70;;;;;;;13.80;95.45;94817.68;1815759;79;21402;-55
2022/06/06 02:41:44;;;;;;;9.20;8.30;;;;;;;13.80;95.43;94804.61;1833622;78;21009;-55
2022/06/06 02:44:13;;;;;;;11.75;9.03;;;;;;;13.79;95.26;94797.55;1817619;79;21013;-54
2022/06/06 02:46:42;;;;;;;14.23;9.70;;;;;;;13.71;95.13;94793.59;1831885;78;21240;-56
2022/06/06 02:49:10;;;;;;;11.18;8.88;;;;;;;13.60;95.17;94793.94;1815659;79;20982;-55
2022/06/06 02:51:38;;;;;;;8.55;7.58;;;;;;;13.53;95.87;94795.63;1831997;78;21072;-54
2022/06/06 02:54:07;;;;;;;10.08;8.75;;;;;;;13.56;96.32;94796.85;1817344;79;20978;-55
2022/06/06 02:56:35;;;;;;;9.73;8.80;;;;;;;13.58;96.08;94790.84;1832249;78;20969;-55
2022/06/06 02:59:06;;;;;;;12.33;8.48;;;;;;;13.52;95.84;94791.33;1815942;79;21919;-54
2022/06/06 03:01:35;;;;;;;8.43;7.62;;;;;;;13.48;96.13;94786.58;1832292;78;21422;-55
2022/06/06 03:04:03;;;;;;;11.65;7.87;;;;;;;13.47;96.13;94780.91;1817373;79;20942;-55
2022/06/06 03:06:51;;;;;;;9.23;8.25;;;;;;;13.48;96.63;94772.77;1832401;78;20974;-55
2022/06/06 03:09:46;;;;;;;11.28;8.03;;;;;;;13.55;97.02;94768.28;1815633;79;21424;-54
2022/06/06 03:12:23;;;;;;;8.65;7.85;;;;;;;13.67;97.12;94765.95;1827651;78;20966;-55
2022/06/06 03:15:02;;;;;;;10.18;6.65;;;;;;;13.70;96.18;94776.08;1791179;80;21460;-55
2022/06/06 03:21:12;;;;;;;7.83;6.97;;;;;;;13.78;94.97;94789.73;1791605;80;21413;-56
2022/06/06 03:24:28;;;;;;;12.07;7.30;;;;;;;13.84;95.17;94790.63;1803163;79;21046;-55
2022/06/06 03:27:15;;;;;;;7.78;6.62;;;;;;;13.88;94.36;94788.45;1791079;80;22071;-55
2022/06/06 03:30:00;;;;;;;6.40;5.90;;;;;;;13.90;94.37;94790.13;1803249;79;20940;-55
2022/06/06 03:33:02;;;;;;;6.78;6.10;;;;;;;13.97;93.58;94785.03;1791263;80;21586;-55
2022/06/06 03:35:54;;;;;;;6.72;6.05;;;;;;;14.01;93.35;94797.31;1802874;79;21030;-54
2022/06/06 03:38:48;;;;;;;8.53;6.40;;;;;;;14.10;92.92;94780.06;1791402;80;21025;-55
2022/06/06 03:41:27;;;;;;;14.90;8.45;;;;;;;14.13;91.68;94781.88;1802969;79;21207;-56
2022/06/06 03:44:39;;;;;;;21.33;12.65;;;;;;;14.07;91.16;94780.22;1764639;80;20957;-56
2022/06/06 03:47:16;;;;;;;16.80;10.45;;;;;;;14.07;91.73;94776.07;1803049;79;21081;-55
2022/06/06 03:49:53;;;;;;;17.50;10.85;;;;;;;14.19;91.78;94778.64;1791229;80;20957;-55
2022/06/06 03:52:51;;;;;;;20.85;12.95;;;;;;;14.31;90.94;94775.50;1802761;79;20995;-55
2022/06/06 03:56:02;;;;;;;14.07;10.58;;;;;;;14.36;90.65;94774.88;1791230;80;21797;-56
2022/06/06 03:58:32;;;;;;;16.12;10.25;;;;;;;14.47;90.33;94763.42;1760448;79;20995;-55
2022/06/06 04:01:06;;;;;;;22.17;11.65;;;;;;;14.56;89.56;94761.97;1791178;80;20968;-57
2022/06/06 04:03:34;;;;;;;18.35;10.45;;;;;;;14.61;89.20;94766.23;1803172;79;21007;-56
2022/06/06 04:06:03;;;;;;;21.57;11.95;;;;;;;14.66;88.93;94771.75;1791139;80;21465;-54
2022/06/06 04:08:32;;;;;;;18.23;11.05;;;;;;;14.67;88.59;94771.27;1803170;79;21215;-55
2022/06/06 04:11:28;;;;;;;18.45;11.18;;;;;;;14.69;88.40;94774.35;1791159;80;20981;-55
2022/06/06 04:14:30;;;;;;;16.37;10.38;;;;;;;14.70;88.23;94773.11;1804568;78;21037;-54
2022/06/06 04:17:22;;;;;;;13.47;9.73;;;;;;;14.73;88.35;94762.47;1817688;79;21019;-56
2022/06/06 04:19:56;;;;;;;25.95;9.78;;;;;;;14.73;88.17;94770.77;1821020;78;21041;-55
2022/06/06 04:22:42;;;;;;;;;;;;;;;14.80;88.57;94771.79;1819979;79;21815;-55
2022/06/06 04:25:37;;;;;;;14.53;10.28;;;;;;;14.89;88.19;94777.27;1821153;78;20418;-53
2022/06/06 04:28:22;;;;;;;19.90;11.50;;;;;;;14.93;87.56;94789.53;1766570;79;20986;-57
2022/06/06 04:30:57;;;;;;;21.45;12.05;;;;;;;14.91;87.75;94793.41;1821417;78;21053;-58
2022/06/06 04:33:53;;;;;;;19.42;12.03;;;;;;;14.90;87.67;94790.48;1817383;79;20942;-54
2022/06/06 04:36:36;;;;;;;23.47;13.28;;;;;;;14.84;87.47;94791.01;1821327;78;21505;-56
2022/06/06 04:39:22;;;;;;;17.80;13.10;;;;;;;14.80;87.24;94792.56;1817568;79;20922;-56
2022/06/06 04:42:04;;;;;;;19.82;13.20;;;;;;;14.93;88.06;94786.77;1820105;78;21501;-56
2022/06/06 04:44:50;;;;;;;20.90;12.55;;;;;;;15.15;88.02;94790.73;1817769;79;21390;-59
2022/06/06 04:47:35;;;;;;;18.23;12.63;;;;;;;15.32;87.98;94796.01;1821228;78;20974;-58
2022/06/06 04:50:06;;;;;;;20.75;13.48;;;;;;;15.47;87.52;94794.63;1817769;79;21457;-55
2022/06/06 04:52:36;;;;;;;19.52;12.53;;;;;;;15.58;86.65;94798.36;1821225;78;20986;-55
2022/06/06 04:55:06;;;;;;;21.37;11.78;;;;;;;15.68;86.45;94797.64;1817814;79;21414;-55
2022/06/06 04:57:37;;;;;;;13.85;10.15;;;;;;;15.78;85.92;94799.87;1792535;78;21049;-55
2022/06/06 05:00:08;;;;;;;13.98;9.48;;;;;;;15.86;85.05;94802.39;1817167;79;20939;-57
2022/06/06 05:02:37;;;;;;;15.23;9.83;;;;;;;15.91;84.53;94813.44;1821403;78;21119;-55
2022/06/06 05:05:06;;;;;;;17.37;10.00;;;;;;;15.97;83.97;94815.67;1817513;79;21429;-57
2022/06/06 05:07:53;;;;;;;14.30;10.50;;;;;;;16.01;83.71;94814.25;1817847;78;21445;-57
2022/06/06 05:10:52;;;;;;;14.55;11.05;;;;;;;16.04;83.91;94817.44;1821368;78;21502;-58
2022/06/06 05:13:50;;;;;;;14.25;9.65;;;;;;;16.10;84.06;94823.84;1818903;78;20998;-56
2022/06/06 05:16:47;;;;;;;13.45;9.68;;;;;;;16.14;84.11;94820.27;1783602;78;21393;-57
2022/06/06 05:19:45;;;;;;;9.45;8.18;;;;;;;16.26;84.29;94830.28;1820546;78;20974;-57
2022/06/06 05:22:46;;;;;;;10.05;7.53;;;;;;;16.42;83.92;94829.80;1791492;78;21429;-58
2022/06/06 05:25:22;;;;;;;10.45;7.75;;;;;;;16.48;83.36;94835.58;1820657;78;20993;-57
2022/06/06 05:28:04;;;;;;;11.65;8.20;;;;;;;16.48;82.77;94836.19;1824480;78;20998;-57
2022/06/06 05:30:37;;;;;;;9.93;8.48;;;;;;;16.42;82.44;94831.97;1793429;78;21165;-57
2022/06/06 05:33:18;;;;;;;11.45;8.35;;;;;;;16.40;82.23;94833.05;1824447;78;21528;-58
2022/06/06 05:36:29;;;;;;;10.00;7.50;;;;;;;16.37;82.32;94842.34;1793478;78;20977;-58
2022/06/06 05:39:31;;;;;;;15.48;8.05;;;;;;;16.32;82.26;94836.67;1785981;78;21466;-62
2022/06/06 05:42:27;;;;;;;11.35;8.10;;;;;;;16.28;82.35;94845.83;1768925;80;20991;-58
2022/06/06 05:45:02;;;;;;;15.10;7.40;;;;;;;16.31;82.55;94837.92;1777008;79;21151;-60
2022/06/06 05:47:51;;;;;;;12.05;8.20;;;;;;;16.37;82.43;94827.72;1776437;78;21041;-60
2022/06/06 05:51:00;;;;;;;9.55;7.30;;;;;;;16.43;82.51;94831.33;1781485;79;20992;-59
2022/06/06 05:53:50;;;;;;;8.40;7.37;;;;;;;16.48;82.58;94827.86;1786303;78;21058;-62
2022/06/06 05:56:44;;;;;;;10.45;8.55;;;;;;;16.43;82.28;94818.22;1782781;79;21531;-61
2022/06/06 05:59:32;;;;;;;8.63;7.72;;;;;;;16.40;83.05;94825.36;1776075;78;21109;-60
2022/06/06 06:02:28;;;;;;;10.25;7.85;;;;;;;16.44;83.02;94819.75;1785758;79;21096;-62
2022/06/06 06:05:09;;;;;;;8.23;7.12;;;;;;;16.55;83.32;94827.48;1774875;78;21037;-62
2022/06/06 06:07:45;;;;;;;8.35;6.00;;;;;;;16.72;82.99;94834.03;1784582;79;20993;-60
2022/06/06 06:10:22;;;;;;;8.25;5.45;;;;;;;16.87;81.83;94841.05;1782451;79;21041;-58
2022/06/06 06:13:21;;;;;;;7.97;6.70;;;;;;;17.06;80.34;94847.13;1768783;79;21232;-61
2022/06/06 06:15:52;;;;;;;6.37;5.37;;;;;;;17.24;78.56;94844.06;1777113;78;21135;-61
2022/06/06 06:18:30;;;;;;;6.00;5.47;;;;;;;17.48;77.00;94843.23;1775159;80;20987;-59
2022/06/06 06:21:12;;;;;;;6.65;4.87;;;;;;;17.69;75.60;94843.33;1772876;80;21092;-59
2022/06/06 06:23:59;;;;;;;11.97;5.40;;;;;;;17.92;74.69;94838.11;1777023;80;21193;-63
2022/06/06 06:26:27;;;;;;;5.80;5.00;;;;;;;18.13;73.25;94842.34;1778412;78;21102;-60
2022/06/06 06:28:55;;;;;;;6.08;4.67;;;;;;;18.31;71.82;94846.97;1774600;78;21116;-63
2022/06/06 06:31:57;;;;;;;7.45;5.35;;;;;;;18.46;70.87;94845.56;1773679;80;21069;-61
2022/06/06 06:34:55;;;;;;;6.33;5.15;;;;;;;18.59;70.64;94837.56;1773323;78;21006;-70
2022/06/06 06:37:40;;;;;;;5.83;4.70;;;;;;;18.76;70.57;94836.27;1783482;80;21344;-64
2022/06/06 06:40:21;;;;;;;4.83;4.42;;;;;;;18.89;69.14;94835.98;1779438;78;21082;-64
2022/06/06 06:43:12;;;;;;;4.25;3.87;;;;;;;18.92;68.03;94832.19;1778556;78;21123;-61
2022/06/06 06:45:51;;;;;;;8.58;4.40;;;;;;;18.98;66.54;94833.63;1778745;78;21609;-63
2022/06/06 06:48:30;;;;;;;14.78;11.38;;;;;;;18.99;65.83;94821.95;1775307;80;21021;-64
2022/06/06 06:51:32;;;;;;;4.70;4.30;;;;;;;19.12;65.54;94833.44;1726904;80;38138;-64
2022/06/06 06:54:30;;;;;;;15.45;6.40;;;;;;;19.29;63.83;94826.55;1706475;82;21328;-64
2022/06/06 06:57:05;;;;;;;4.65;4.22;;;;;;;19.42;63.96;94824.84;1693211;82;21860;-64
2022/06/06 06:59:57;;;;;;;4.35;3.95;;;;;;;19.54;62.70;94826.39;1702430;83;21042;-63
2022/06/06 07:08:55;;;;;;;7.67;6.70;;;;;;;19.84;61.04;94827.48;1708929;82;21835;-63
2022/06/06 07:11:44;;;;;;;5.65;3.75;;;;;;;19.92;59.54;94826.36;1716261;82;21099;-67
2022/06/06 07:14:40;;;;;;;4.45;3.52;;;;;;;20.03;60.25;94828.56;1738783;81;21521;-64
2022/06/06 07:17:08;;;;;;;5.40;3.83;;;;;;;20.12;58.55;94826.91;1720074;82;21093;-66
2022/06/06 07:19:55;;;;;;;4.78;3.62;;;;;;;20.16;58.83;94821.20;1704852;83;21621;-61
2022/06/06 07:22:22;;;;;;;4.15;3.30;;;;;;;20.18;57.69;94819.31;1695547;83;21264;-65
2022/06/06 07:24:55;;;;;;;3.55;3.25;;;;;;;20.00;57.58;94815.58;1707825;82;21050;-61
2022/06/06 07:27:22;;;;;;;3.70;3.30;;;;;;;19.89;58.15;94819.75;1716242;82;22055;-65
2022/06/06 07:29:50;;;;;;;7.75;3.05;;;;;;;19.92;58.91;94817.33;1720200;82;20999;-68
2022/06/06 07:32:23;;;;;;;6.05;3.30;;;;;;;19.98;58.30;94815.95;1718638;83;21015;-64
2022/06/06 07:35:31;;;;;;;3.42;3.12;;;;;;;20.04;58.14;94820.31;1720057;82;21164;-66
2022/06/06 07:38:18;;;;;;;6.87;3.25;;;;;;;20.16;58.71;94814.88;1721799;82;21344;-63
2022/06/06 07:41:12;;;;;;;5.97;3.35;;;;;;;20.27;56.85;94807.87;1715973;82;21027;-62
2022/06/06 07:44:00;;;;;;;3.77;2.75;;;;;;;20.23;57.00;94805.97;1664754;83;21090;-61
2022/06/06 07:47:00;;;;;;;3.22;2.92;;;;;;;20.26;56.86;94813.33;1712942;82;21156;-65
2022/06/06 07:49:51;;;;;;;3.90;3.50;;;;;;;20.21;56.41;94815.50;1718411;82;21127;-69
2022/06/06 07:52:39;;;;;;;7.15;4.30;;;;;;;20.11;56.11;94814.86;1708663;82;21105;-72
2022/06/06 07:55:21;;;;;;;6.60;4.45;;;;;;;20.05;55.89;94812.05;1709415;82;21074;-64
2022/06/06 07:58:02;;;;;;;4.05;3.75;;;;;;;20.09;56.43;94809.77;1711058;83;22283;-67
2022/06/06 08:00:32;;;;;;;4.05;3.60;;;;;;;20.20;56.82;94812.58;1719244;82;21198;-61
2022/06/06 08:03:23;;;;;;;3.75;3.40;;;;;;;20.28;56.23;94814.98;1713604;83;21222;-62
2022/06/06 08:06:11;;;;;;;4.95;3.62;;;;;;;20.33;56.36;94821.97;1717826;82;22232;-61
2022/06/06 08:09:02;;;;;;;3.65;3.10;;;;;;;20.31;55.85;94817.53;1730312;82;21052;-59
2022/06/06 08:11:58;;;;;;;8.83;5.37;;;;;;;20.30;55.34;94819.42;1726708;82;21043;-61
2022/06/06 08:14:41;;;;;;;6.05;4.22;;;;;;;20.26;55.59;94820.31;1727789;81;21415;-58
2022/06/06 08:17:33;;;;;;;3.73;3.37;;;;;;;20.34;55.76;94817.16;1738436;81;21838;-61
2022/06/06 08:20:36;;;;;;;4.92;3.62;;;;;;;20.57;55.91;94808.88;1738179;82;21171;-59
2022/06/06 08:23:03;;;;;;;;;;;;;;;20.91;55.81;94803.37;1743779;81;21553;-60
2022/06/06 08:25:32;;;;;;;4.47;3.45;;;;;;;21.25;56.38;94805.55;1744394;80;20136;-59
2022/06/06 08:27:59;;;;;;;5.03;3.25;;;;;;;21.46;55.29;94815.12;1743726;81;21021;-73
2022/06/06 08:30:27;;;;;;;4.50;2.95;;;;;;;21.56;54.38;94807.19;1740686;80;21104;-68
2022/06/06 08:32:55;;;;;;;2.60;2.40;;;;;;;21.54;53.33;94800.72;1755978;80;20954;-61
2022/06/06 08:35:23;;;;;;;3.85;2.80;;;;;;;21.39;51.54;94805.09;1695062;82;21079;-66
2022/06/06 08:38:16;;;;;;;3.27;2.62;;;;;;;21.33;52.28;94807.17;1708021;81;21041;-68
2022/06/06 08:41:07;;;;;;;3.02;2.72;;;;;;;21.41;52.79;94806.12;1746136;80;20960;-63
2022/06/06 08:43:55;;;;;;;3.12;2.58;;;;;;;21.61;52.84;94802.96;1667562;84;21248;-63
2022/06/06 08:46:31;;;;;;;3.10;2.83;;;;;;;21.81;51.10;94803.27;1731246;81;21081;-61
2022/06/06 08:52:31;;;;;;;7.10;2.47;;;;;;;21.99;51.11;94793.59;1736744;81;22347;-66
2022/06/06 08:55:09;;;;;;;;;;;;;;;21.92;49.81;94797.58;1742385;81;21113;-61
2022/06/06 08:57:52;;;;;;;3.12;2.77;;;;;;;21.71;49.92;94798.62;1746477;82;21126;-60
2022/06/06 09:00:40;;;;;;;11.40;3.50;;;;;;;21.45;50.52;94798.86;1729231;81;28420;-62
2022/06/06 09:03:38;;;;;;;6.20;3.22;;;;;;;21.34;51.71;94801.70;1734833;81;21054;-65
2022/06/06 09:06:30;;;;;;;3.17;2.87;;;;;;;21.40;52.07;94795.42;1743717;81;21557;-63
2022/06/06 09:09:11;;;;;;;2.52;2.33;;;;;;;21.60;52.92;94792.27;1740750;81;20989;-62
2022/06/06 09:12:06;;;;;;;2.72;2.37;;;;;;;21.77;51.67;94788.77;1746256;81;21752;-63
2022/06/06 09:15:11;;;;;;;6.37;3.35;;;;;;;21.96;53.33;94782.65;1742952;81;21030;-65
2022/06/06 09:18:06;;;;;;;3.50;2.60;;;;;;;22.28;53.12;94797.08;1726833;81;21076;-65
2022/06/06 09:20:59;;;;;;;3.85;2.70;;;;;;;22.63;52.66;94785.84;1747053;81;21754;-62
2022/06/06 09:24:04;;;;;;;2.83;2.62;;;;;;;22.85;49.95;94782.15;1762027;80;21013;-62
2022/06/06 09:26:41;;;;;;;4.12;2.62;;;;;;;22.96;50.81;94778.47;1732972;81;21356;-61
2022/06/06 09:29:39;;;;;;;5.37;3.05;;;;;;;23.08;50.23;94770.82;1739651;80;21178;-61
2022/06/06 09:32:53;;;;;;;4.90;2.50;;;;;;;23.18;50.02;94777.61;1729635;82;21465;-61
2022/06/06 09:36:02;;;;;;;2.87;2.58;;;;;;;23.17;48.80;94770.48;1742841;81;21061;-62
2022/06/06 09:38:45;;;;;;;7.45;3.00;;;;;;;23.04;48.08;94778.01;1736433;80;21298;-63
2022/06/06 09:41:42;;;;;;;7.72;2.80;;;;;;;23.04;49.37;94773.80;1700872;81;21827;-61
2022/06/06 09:44:22;;;;;;;2.95;2.65;;;;;;;23.22;48.70;94780.13;1743698;81;21124;-59
2022/06/06 09:47:46;;;;;;;2.55;2.35;;;;;;;23.41;47.48;94778.11;1736051;81;21070;-62
2022/06/06 09:50:53;;;;;;;7.60;2.72;;;;;;;23.64;45.21;94780.73;1744741;80;21094;-61
2022/06/06 09:59:01;;;;;;;5.75;2.52;;;;;;;23.89;46.74;94784.37;1712409;81;21443;-59
2022/06/06 09:59:36;;;;;;;3.20;2.30;;;;;;;23.96;43.29;94780.93;1750818;80;21112;-59
2022/06/06 10:02:24;;;;;;;5.50;2.33;;;;;;;23.73;44.76;94786.73;1708788;82;21077;-57
2022/06/06 10:05:16;;;;;;;5.25;2.70;;;;;;;23.63;44.03;94787.64;1706854;82;21427;-58
2022/06/06 10:08:08;;;;;;;;;;;;;;;23.49;44.34;94788.21;1736647;81;20996;-62
2022/06/06 10:11:03;;;;;;;6.25;2.10;;;;;;;23.61;45.90;94778.33;1742357;82;21255;-59
2022/06/06 10:14:09;;;;;;;3.92;2.40;;;;;;;23.85;44.16;94783.92;1731211;82;21005;-58
2022/06/06 10:17:06;;;;;;;2.95;2.30;;;;;;;23.89;42.90;94779.37;1732016;82;21051;-57
2022/06/06 10:20:05;;;;;;;2.60;2.40;;;;;;;23.69;43.82;94780.66;1741778;81;21080;-57
2022/06/06 10:23:03;;;;;;;2.62;2.40;;;;;;;23.70;43.77;94780.00;1675540;82;21051;-58
2022/06/06 10:25:54;;;;;;;2.98;2.10;;;;;;;23.76;45.13;94771.61;1730198;81;21247;-57
2022/06/06 10:28:35;;;;;;;2.47;2.22;;;;;;;24.03;46.69;94777.52;1724862;82;21009;-59
2022/06/06 10:31:47;;;;;;;2.85;2.20;;;;;;;24.45;45.90;94778.77;1742850;81;21085;-60
2022/06/06 10:34:40;;;;;;;2.20;2.00;;;;;;;24.95;43.88;94773.69;1735727;81;21127;-59
2022/06/06 10:37:28;;;;;;;2.05;1.87;;;;;;;25.50;43.24;94770.55;1746617;81;21033;-57
2022/06/06 10:40:44;;;;;;;1.85;1.75;;;;;;;25.91;43.03;94771.38;1747002;81;21127;-60
2022/06/06 10:43:47;;;;;;;2.12;2.00;;;;;;;26.18;41.48;94772.14;1745161;81;21108;-59
2022/06/06 10:46:26;;;;;;;2.47;1.92;;;;;;;26.02;41.76;94770.47;1741056;81;21009;-60
2022/06/06 10:49:25;;;;;;;5.08;2.40;;;;;;;25.91;41.70;94774.19;1737105;82;21517;-58
2022/06/06 10:52:09;;;;;;;3.62;1.87;;;;;;;26.21;41.73;94771.05;1745028;81;21024;-60
2022/06/06 10:55:26;;;;;;;2.35;2.15;;;;;;;26.69;40.14;94764.09;1750891;79;21011;-58
2022/06/06 10:58:41;;;;;;;5.43;2.00;;;;;;;27.10;40.38;94759.08;1749758;81;38767;-58
2022/06/06 11:01:45;;;;;;;2.77;1.90;;;;;;;27.01;39.15;94762.39;1767266;81;22222;-59
2022/06/06 11:04:52;;;;;;;3.12;2.65;;;;;;;26.76;39.19;94760.59;1736878;82;21062;-58
2022/06/06 11:08:01;;;;;;;3.22;2.10;;;;;;;26.18;39.65;94760.22;1732930;81;21008;-57
2022/06/06 11:10:59;;;;;;;3.10;2.40;;;;;;;25.58;41.31;94757.97;1748494;81;21183;-61
2022/06/06 11:13:31;;;;;;;3.70;2.30;;;;;;;25.02;41.69;94760.37;1704887;82;20984;-61
2022/06/06 11:16:29;;;;;;;2.47;2.27;;;;;;;24.63;43.00;94757.51;1711242;82;21026;-58
2022/06/06 11:19:15;;;;;;;2.50;2.27;;;;;;;24.44;43.65;94761.01;1717935;82;21003;-57
2022/06/06 11:22:22;;;;;;;4.20;2.10;;;;;;;24.52;44.26;94759.09;1773516;80;21528;-57
2022/06/06 11:25:13;;;;;;;3.58;2.10;;;;;;;24.56;44.81;94760.97;1725560;82;21534;-65
2022/06/06 11:28:03;;;;;;;;;;;;;;;24.63;43.29;94763.91;1739264;82;21025;-58
2022/06/06 11:31:03;;;;;;;2.95;2.15;;;;;;;24.58;43.32;94759.78;1737051;81;20383;-59
2022/06/06 11:34:02;;;;;;;3.85;2.10;;;;;;;24.51;44.05;94755.54;1737752;82;21106;-59
2022/06/06 11:37:01;;;;;;;5.65;2.33;;;;;;;24.49;44.32;94760.92;1746864;81;21099;-67
2022/06/06 11:39:43;;;;;;;11.35;2.50;;;;;;;24.48;43.87;94749.55;1703717;83;21395;-58
2022/06/06 11:42:40;;;;;;;2.42;2.22;;;;;;;24.92;44.55;94755.06;1656982;83;21041;-62
2022/06/06 11:45:33;;;;;;;1.80;1.70;;;;;;;25.71;45.21;94748.09;1720541;81;21119;-60
2022/06/06 11:48:33;;;;;;;2.27;2.10;;;;;;;26.43;40.91;94750.75;1706541;81;21072;-58
2022/06/06 11:51:11;;;;;;;3.02;2.20;;;;;;;26.50;41.09;94750.11;1722022;83;21193;-57
2022/06/06 11:54:00;;;;;;;5.35;2.05;;;;;;;26.59;41.39;94753.20;1708435;81;21193;-62
2022/06/06 11:57:04;;;;;;;5.03;2.15;;;;;;;27.19;39.55;94748.02;1720219;81;20983;-60
2022/06/06 11:59:59;;;;;;;6.60;2.47;;;;;;;27.20;39.76;94743.89;1708076;82;21024;-59
2022/06/06 12:02:56;;;;;;;2.67;2.05;;;;;;;27.06;39.44;94750.91;1751383;81;21012;-59
2022/06/06 12:05:51;;;;;;;3.52;1.95;;;;;;;26.90;39.38;94749.33;1738179;81;21076;-59
2022/06/06 12:08:59;;;;;;;3.05;1.77;;;;;;;26.69;40.16;94745.00;1720740;82;21249;-59
2022/06/06 12:11:46;;;;;;;2.22;1.82;;;;;;;26.43;41.05;94754.34;1735307;81;20982;-58
2022/06/06 12:14:48;;;;;;;1.95;1.77;;;;;;;26.86;42.12;94743.25;1725588;81;21030;-61
2022/06/06 12:17:36;;;;;;;5.20;1.60;;;;;;;27.75;41.11;94743.72;1760023;81;21003;-57
2022/06/06 12:20:31;;;;;;;1.95;1.72;;;;;;;28.81;39.17;94736.30;1726072;81;21011;-59
2022/06/06 12:23:09;;;;;;;2.15;1.67;;;;;;;29.74;37.71;94735.71;1758978;81;21405;-60
2022/06/06 12:26:01;;;;;;;5.55;1.65;;;;;;;30.34;35.60;94729.84;1705288;82;21431;-58
2022/06/06 12:28:49;;;;;;;;;;;;;;;30.21;35.22;94732.20;1710980;82;21110;-62
2022/06/06 12:31:44;;;;;;;3.55;2.60;;;;;;;30.28;36.13;94720.06;1754276;80;20192;-58
2022/06/06 12:34:26;;;;;;;2.27;1.25;;;;;;;30.13;34.94;94723.72;1714508;83;21069;-58
2022/06/06 12:37:28;;;;;;;1.32;1.22;;;;;;;30.33;35.19;94720.49;1721018;82;21224;-59
2022/06/06 12:40:04;;;;;;;2.95;1.75;;;;;;;30.78;35.49;94728.05;1724451;81;21515;-58
2022/06/06 12:42:52;;;;;;;1.42;1.32;;;;;;;31.51;34.39;94712.20;1740384;81;20965;-58
2022/06/06 12:45:41;;;;;;;3.15;1.60;;;;;;;32.10;33.45;94705.81;1728115;81;21631;-57
2022/06/06 12:48:22;;;;;;;2.67;1.47;;;;;;;32.63;32.41;94697.94;1735206;81;21115;-63
2022/06/06 12:51:23;;;;;;;3.72;1.75;;;;;;;32.67;31.56;94699.67;1741551;81;21068;-59
2022/06/06 12:54:22;;;;;;;2.37;1.67;;;;;;;32.05;31.54;94706.81;1687597;84;21076;-58
2022/06/06 12:56:55;;;;;;;2.17;1.40;;;;;;;31.23;31.87;94709.18;1693752;83;22390;-57
2022/06/06 12:59:37;;;;;;;3.52;2.40;;;;;;;30.27;33.06;94704.33;1683851;84;22164;-59
2022/06/06 13:02:33;;;;;;;3.25;1.60;;;;;;;29.68;34.34;94703.30;1695736;83;21103;-61
2022/06/06 13:05:20;;;;;;;2.15;1.45;;;;;;;29.43;34.79;94698.17;1695948;83;21199;-63
2022/06/06 13:07:53;;;;;;;3.92;1.90;;;;;;;29.60;34.51;94692.66;1684291;83;20996;-60
2022/06/06 13:10:38;;;;;;;4.03;1.35;;;;;;;30.22;33.94;94691.89;1709260;83;21049;-60